Time;durP1;ratioP1;P1;durP2;ratioP2;P2;SDS_P1;SDS_P2;PMS_P1;PMS_P2;Temp;Humidity;BMP_temperature;BMP_pressure;BME280_temperature;BME280_humidity;BME280_pressure;Samples;Min_cycle;Max_cycle;Signal;HPM_P1;HPM_P2
2023/04/27 00:00:24;;;;;;;6.70;3.97;;;5.80;92.50;;;;;;4938314;29;20181;-74
2023/04/27 00:02:50;;;;;;;7.43;3.90;;;5.80;92.40;;;;;;4938528;29;20177;-74
2023/04/27 00:05:16;;;;;;;5.25;3.83;;;5.80;92.60;;;;;;4938204;29;20181;-74
2023/04/27 00:07:42;;;;;;;6.78;4.53;;;5.70;92.80;;;;;;4955803;28;20288;-75
2023/04/27 00:10:08;;;;;;;5.85;4.35;;;5.80;93.00;;;;;;4938182;29;20220;-75
2023/04/27 00:12:37;;;;;;;9.30;4.47;;;5.80;93.20;;;;;;4938009;29;20236;-75
2023/04/27 00:15:04;;;;;;;7.20;3.90;;;5.80;93.40;;;;;;4938138;29;20222;-74
2023/04/27 00:17:29;;;;;;;6.50;5.10;;;5.80;93.00;;;;;;4938187;29;20704;-75
2023/04/27 00:19:55;;;;;;;6.18;4.00;;;5.90;93.50;;;;;;4938874;29;20174;-75
2023/04/27 00:22:21;;;;;;;6.32;3.38;;;5.90;92.80;;;;;;4938129;29;20185;-75
2023/04/27 00:24:46;;;;;;;6.90;3.67;;;5.90;92.50;;;;;;4956201;29;20181;-74
2023/04/27 00:27:12;;;;;;;6.68;3.28;;;5.90;92.50;;;;;;4937947;29;20678;-75
2023/04/27 00:29:41;;;;;;;5.13;3.20;;;5.90;92.60;;;;;;4938062;29;20196;-75
2023/04/27 00:32:10;;;;;;;9.63;3.22;;;6.00;92.70;;;;;;4955088;29;20275;-74
2023/04/27 00:34:37;;;;;;;3.72;2.80;;;5.90;92.40;;;;;;4938836;29;20213;-74
2023/04/27 00:37:03;;;;;;;4.75;2.78;;;5.90;92.60;;;;;;4938939;29;20201;-75
2023/04/27 00:39:29;;;;;;;4.78;2.90;;;5.90;92.20;;;;;;4937972;29;20662;-75
2023/04/27 00:41:55;;;;;;;4.20;2.90;;;5.80;92.30;;;;;;4937802;29;20188;-74
2023/04/27 00:44:24;;;;;;;8.32;3.30;;;5.50;92.70;;;;;;4955213;29;20194;-74
2023/04/27 00:46:50;;;;;;;5.18;2.88;;;5.50;92.80;;;;;;4937874;29;20202;-75
2023/04/27 00:49:16;;;;;;;4.55;2.70;;;5.40;92.90;;;;;;4938655;29;20177;-75
2023/04/27 00:51:42;;;;;;;3.58;2.90;;;5.50;92.90;;;;;;4955159;29;20234;-74
2023/04/27 00:54:08;;;;;;;4.07;2.80;;;5.50;93.00;;;;;;4954984;29;20182;-74
2023/04/27 00:56:33;;;;;;;5.35;2.92;;;5.50;93.00;;;;;;4937676;29;20205;-74
2023/04/27 00:58:59;;;;;;;3.65;3.10;;;5.40;93.00;;;;;;4937798;29;20182;-74
2023/04/27 01:36:19;;;;;;;4.50;3.20;;;5.60;94.60;;;;;;4930753;23;20229;-84
2023/04/27 01:38:44;;;;;;;6.68;3.25;;;5.50;94.50;;;;;;4940805;29;20181;-84
2023/04/27 01:41:10;;;;;;;8.35;3.40;;;5.50;93.90;;;;;;4940711;29;20205;-84
2023/04/27 01:43:36;;;;;;;5.30;3.10;;;5.60;93.90;;;;;;4941097;29;20662;-84
2023/04/27 01:46:06;;;;;;;5.63;2.70;;;5.60;93.90;;;;;;4940655;29;20197;-84
2023/04/27 01:48:32;;;;;;;5.75;3.65;;;5.70;94.10;;;;;;4941091;29;20174;-84
2023/04/27 01:50:58;;;;;;;4.35;3.55;;;5.70;94.20;;;;;;4941461;29;20177;-84
2023/04/27 01:53:23;;;;;;;8.10;4.45;;;5.70;94.40;;;;;;4941533;29;20518;-84
2023/04/27 01:55:49;;;;;;;5.05;4.55;;;5.70;94.60;;;;;;4940655;29;20224;-84
2023/04/27 01:58:15;;;;;;;5.85;4.38;;;5.60;94.70;;;;;;4957622;29;20193;-84
2023/04/27 02:00:40;;;;;;;6.63;4.82;;;5.60;95.00;;;;;;4940267;29;20209;-84
2023/04/27 02:03:06;;;;;;;5.75;4.80;;;5.60;95.00;;;;;;4940733;29;20186;-84
2023/04/27 02:05:31;;;;;;;8.38;4.82;;;5.50;95.00;;;;;;4940506;28;20202;-84
2023/04/27 02:07:57;;;;;;;7.22;4.60;;;5.50;95.20;;;;;;4940219;29;20193;-84
2023/04/27 02:10:22;;;;;;;6.03;4.57;;;5.60;95.40;;;;;;4940332;29;20181;-84
2023/04/27 02:12:48;;;;;;;9.13;4.68;;;5.60;95.50;;;;;;4940165;29;20567;-84
2023/04/27 02:15:14;;;;;;;7.18;4.18;;;5.50;95.50;;;;;;4940131;28;20182;-84
2023/04/27 02:17:40;;;;;;;5.60;4.30;;;5.50;95.40;;;;;;4940327;29;20229;-84
2023/04/27 02:20:07;;;;;;;6.10;4.35;;;5.50;95.50;;;;;;4940031;29;20182;-84
2023/04/27 02:22:33;;;;;;;6.75;4.70;;;5.30;95.80;;;;;;4939992;29;20177;-84
2023/04/27 02:24:59;;;;;;;6.97;4.72;;;5.30;95.90;;;;;;4940430;29;20698;-84
2023/04/27 02:27:24;;;;;;;5.30;4.60;;;5.40;96.10;;;;;;4940176;29;20205;-84
2023/04/27 02:29:50;;;;;;;7.00;4.83;;;5.40;96.20;;;;;;4939948;29;20185;-84
2023/04/27 02:32:16;;;;;;;8.05;4.55;;;5.30;96.20;;;;;;4940699;29;20209;-84
2023/04/27 02:34:41;;;;;;;7.50;4.47;;;5.40;96.30;;;;;;4940366;29;20196;-84
2023/04/27 02:37:07;;;;;;;7.05;4.70;;;5.30;96.00;;;;;;4941159;29;20221;-84
2023/04/27 02:39:33;;;;;;;7.23;4.53;;;5.20;96.60;;;;;;4940128;29;20181;-84
2023/04/27 02:41:58;;;;;;;6.68;4.57;;;5.20;96.40;;;;;;4957446;29;20213;-84
2023/04/27 02:44:24;;;;;;;4.95;4.07;;;5.30;96.40;;;;;;4939935;29;20182;-84
2023/04/27 02:46:50;;;;;;;8.43;4.80;;;5.30;96.60;;;;;;4957101;28;20228;-84
2023/04/27 02:49:15;;;;;;;17.67;4.72;;;5.30;96.60;;;;;;4940366;29;20245;-84
2023/04/27 02:51:41;;;;;;;6.23;4.13;;;5.30;96.60;;;;;;4939565;29;20288;-84
2023/04/27 02:54:08;;;;;;;8.95;4.60;;;5.30;96.40;;;;;;4957145;29;20669;-88
2023/04/27 02:56:33;;;;;;;6.83;4.43;;;5.30;96.40;;;;;;4939503;29;20235;-88
2023/04/27 02:58:59;;;;;;;7.73;4.70;;;5.30;96.70;;;;;;4956728;29;20186;-88
2023/04/27 03:01:25;;;;;;;6.70;4.70;;;5.20;96.60;;;;;;4939259;29;20535;-87
2023/04/27 03:03:50;;;;;;;5.43;4.30;;;5.10;96.80;;;;;;4956506;29;20197;-88
2023/04/27 03:06:16;;;;;;;8.43;4.80;;;5.00;97.00;;;;;;4939223;29;20202;-87
2023/04/27 03:08:42;;;;;;;4.93;4.43;;;5.00;97.00;;;;;;4939963;29;20223;-87
2023/04/27 03:11:08;;;;;;;7.07;4.70;;;5.00;97.00;;;;;;4939007;29;20189;-87
2023/04/27 03:13:40;;;;;;;11.00;4.33;;;5.00;97.00;;;;;;4939146;29;20260;-87
2023/04/27 03:16:09;;;;;;;8.17;4.50;;;5.00;97.20;;;;;;4938913;29;20206;-87
2023/04/27 03:18:34;;;;;;;5.10;4.43;;;5.10;97.10;;;;;;4939036;29;20665;-88
2023/04/27 03:21:10;;;;;;;5.63;4.30;;;5.10;97.00;;;;;;4938871;29;20189;-88
2023/04/27 03:23:37;;;;;;;6.57;4.20;;;5.20;96.90;;;;;;4956214;29;20260;-88
2023/04/27 03:26:10;;;;;;;17.15;10.98;;;5.20;96.90;;;;;;4939075;29;20209;-88
2023/04/27 03:28:36;;;;;;;11.93;7.00;;;5.30;96.80;;;;;;4938803;29;20180;-88
2023/04/27 03:31:12;;;;;;;9.95;6.18;;;5.40;96.50;;;;;;4938522;29;20181;-88
2023/04/27 03:33:38;;;;;;;11.88;5.47;;;5.50;95.60;;;;;;4939500;29;20170;-88
2023/04/27 03:36:05;;;;;;;8.90;4.82;;;5.60;95.10;;;;;;4955614;28;20217;-88
2023/04/27 03:38:31;;;;;;;5.82;4.10;;;5.60;95.00;;;;;;4939532;29;20260;-87
2023/04/27 03:40:57;;;;;;;3.65;3.15;;;5.60;94.60;;;;;;4938502;29;20220;-88
2023/04/27 03:43:23;;;;;;;7.18;3.60;;;5.50;94.50;;;;;;4955708;29;20174;-88
2023/04/27 03:45:49;;;;;;;7.20;3.83;;;5.60;94.30;;;;;;4938826;29;20212;-87
2023/04/27 03:48:15;;;;;;;10.60;3.70;;;5.50;94.10;;;;;;4955889;29;20649;-88
2023/04/27 03:50:42;;;;;;;7.83;3.80;;;5.50;94.50;;;;;;4938481;29;20228;-88
2023/04/27 03:53:07;;;;;;;6.35;3.83;;;5.40;94.10;;;;;;4938687;29;20590;-86
2023/04/27 03:55:33;;;;;;;8.57;4.00;;;5.40;94.00;;;;;;4956999;28;20214;-84
2023/04/27 03:57:59;;;;;;;4.87;3.33;;;5.50;93.80;;;;;;4939968;29;20224;-86
2023/04/27 04:00:25;;;;;;;7.20;3.67;;;5.30;93.80;;;;;;4938771;29;20196;-86
2023/04/27 04:02:51;;;;;;;5.00;3.80;;;5.40;94.30;;;;;;4941494;29;20192;-85
2023/04/27 04:05:17;;;;;;;5.88;3.70;;;5.40;94.40;;;;;;4938409;28;20182;-85
2023/04/27 04:07:43;;;;;;;6.60;3.53;;;5.40;94.20;;;;;;4937878;29;20186;-85
2023/04/27 04:10:09;;;;;;;8.32;3.90;;;5.50;94.20;;;;;;4938284;29;20188;-85
2023/04/27 04:12:35;;;;;;;21.83;5.20;;;5.30;93.90;;;;;;4937639;29;20212;-85
2023/04/27 04:15:06;;;;;;;9.77;4.20;;;5.20;93.90;;;;;;4937557;29;20578;-85
2023/04/27 04:17:32;;;;;;;6.70;3.87;;;5.20;94.00;;;;;;4955127;28;20213;-85
2023/04/27 04:19:59;;;;;;;5.50;3.80;;;5.20;93.90;;;;;;4939359;29;20170;-85
2023/04/27 04:22:25;;;;;;;5.20;3.57;;;5.10;94.10;;;;;;4939846;29;20188;-85
2023/04/27 04:24:51;;;;;;;8.07;4.00;;;5.20;94.30;;;;;;4939652;29;20181;-85
2023/04/27 04:27:17;;;;;;;9.15;3.58;;;5.30;94.30;;;;;;4938821;29;20231;-85
2023/04/27 04:29:42;;;;;;;6.37;3.60;;;5.20;94.20;;;;;;4939369;29;20177;-85
2023/04/27 04:32:08;;;;;;;6.87;3.67;;;5.20;94.40;;;;;;4938707;29;20205;-85
2023/04/27 04:34:35;;;;;;;6.10;3.77;;;5.20;94.60;;;;;;4939886;29;20177;-85
2023/04/27 04:37:01;;;;;;;7.95;3.88;;;5.30;94.60;;;;;;4938746;29;20338;-85
2023/04/27 04:39:30;;;;;;;11.23;4.17;;;5.30;94.60;;;;;;4939280;29;20221;-85
2023/04/27 04:41:56;;;;;;;5.20;3.60;;;5.10;94.70;;;;;;4940144;29;20197;-85
2023/04/27 04:44:22;;;;;;;7.83;3.47;;;5.10;94.80;;;;;;4943092;29;20549;-85
2023/04/27 04:46:48;;;;;;;10.07;3.60;;;4.90;95.00;;;;;;4942124;29;20209;-85
2023/04/27 04:49:13;;;;;;;6.33;3.90;;;4.90;95.40;;;;;;4942543;29;20642;-85
2023/04/27 04:51:43;;;;;;;18.70;4.25;;;5.00;95.10;;;;;;4941915;29;20297;-85
2023/04/27 04:54:10;;;;;;;7.33;3.40;;;5.20;95.00;;;;;;4942115;29;20217;-85
2023/04/27 04:56:36;;;;;;;26.70;4.50;;;5.30;94.70;;;;;;4942084;29;20210;-85
2023/04/27 04:59:02;;;;;;;14.63;4.20;;;5.40;94.40;;;;;;4942055;29;20184;-85
2023/04/27 05:01:28;;;;;;;12.70;4.18;;;5.40;94.50;;;;;;4942222;29;20241;-85
2023/04/27 05:03:54;;;;;;;10.88;4.03;;;5.40;94.60;;;;;;4959224;29;20185;-85
2023/04/27 05:06:20;;;;;;;9.60;4.10;;;5.50;94.60;;;;;;4942104;29;20292;-85
2023/04/27 05:08:46;;;;;;;10.52;4.20;;;5.60;94.80;;;;;;4942581;29;20189;-85
2023/04/27 05:11:11;;;;;;;10.68;4.70;;;5.60;94.60;;;;;;4941907;29;20221;-85
2023/04/27 05:13:40;;;;;;;20.75;4.63;;;5.60;94.40;;;;;;4942931;29;20532;-85
2023/04/27 05:16:06;;;;;;;10.30;3.55;;;5.70;94.20;;;;;;4941746;29;20213;-85
2023/04/27 05:18:33;;;;;;;6.05;3.47;;;5.80;93.60;;;;;;4941891;29;20213;-85
2023/04/27 05:20:59;;;;;;;10.30;3.90;;;5.90;92.90;;;;;;4959508;29;20185;-85
2023/04/27 05:23:25;;;;;;;137.43;12.95;;;5.60;93.30;;;;;;4941871;29;20181;-85
2023/04/27 05:25:51;;;;;;;62.45;7.72;;;5.60;93.70;;;;;;4941516;29;20209;-85
2023/04/27 05:28:17;;;;;;;17.15;4.28;;;5.80;93.70;;;;;;4941923;29;20675;-85
2023/04/27 05:30:42;;;;;;;8.80;4.07;;;6.00;92.80;;;;;;4941685;29;20182;-85
2023/04/27 05:33:08;;;;;;;9.50;4.03;;;6.10;92.60;;;;;;4941537;29;20296;-85
2023/04/27 05:35:34;;;;;;;20.40;5.40;;;6.10;92.70;;;;;;4943118;28;20200;-85
2023/04/27 05:38:00;;;;;;;19.70;5.35;;;6.30;92.60;;;;;;4942026;29;20233;-85
2023/04/27 05:40:26;;;;;;;37.25;5.75;;;6.40;92.10;;;;;;4941323;29;20178;-85
2023/04/27 05:42:51;;;;;;;27.95;5.88;;;6.50;92.50;;;;;;4940804;29;20656;-85
2023/04/27 05:45:17;;;;;;;34.60;5.63;;;6.60;92.40;;;;;;4940667;28;20184;-85
2023/04/27 05:47:43;;;;;;;15.57;4.70;;;6.60;92.90;;;;;;4940961;29;20272;-85
2023/04/27 05:50:09;;;;;;;16.60;4.82;;;6.70;92.90;;;;;;4941249;29;20232;-85
2023/04/27 05:52:35;;;;;;;29.63;5.53;;;6.90;92.70;;;;;;4940840;28;20288;-85
2023/04/27 05:55:00;;;;;;;14.15;4.65;;;6.80;93.00;;;;;;4939873;29;20261;-85
2023/04/27 05:57:26;;;;;;;16.58;4.95;;;7.00;93.40;;;;;;4941135;29;20322;-85
2023/04/27 05:59:52;;;;;;;19.85;5.28;;;7.20;93.40;;;;;;4941963;29;20178;-85
2023/04/27 06:02:18;;;;;;;33.08;5.68;;;7.40;92.90;;;;;;4940598;29;20181;-85
2023/04/27 06:04:45;;;;;;;16.63;4.90;;;7.40;92.60;;;;;;4940519;29;20201;-85
2023/04/27 06:07:12;;;;;;;12.52;4.70;;;7.50;92.50;;;;;;4957841;28;20280;-85
2023/04/27 06:09:38;;;;;;;15.35;4.30;;;7.70;92.30;;;;;;4957719;29;20188;-85
2023/04/27 06:12:04;;;;;;;15.38;4.82;;;7.80;92.20;;;;;;4940375;29;20210;-85
2023/04/27 06:14:32;;;;;;;14.20;4.80;;;8.00;91.80;;;;;;4940427;29;20233;-85
2023/04/27 06:16:57;;;;;;;6.63;4.00;;;8.00;91.30;;;;;;4940541;29;20229;-85
2023/04/27 06:19:23;;;;;;;26.25;5.03;;;8.40;91.10;;;;;;4940061;29;20178;-85
